createdAt,value
2018-12-07T00:00:05.625Z,34.03
2018-12-07T00:02:46.005Z,38.67
2018-12-07T00:05:22.480Z,37.20
2018-12-07T00:15:56.302Z,23.83
2018-12-07T00:18:36.181Z,26.17
2018-12-07T00:21:09.190Z,21.43
2018-12-07T00:23:39.629Z,31.17
2018-12-07T00:26:17.891Z,29.60
2018-12-07T00:28:54.507Z,28.67
2018-12-07T00:31:30.473Z,30.70
2018-12-07T00:34:01.951Z,19.20
2018-12-07T00:36:40.682Z,32.00
2018-12-07T00:39:16.011Z,13.50
2018-12-07T00:41:51.468Z,24.77
2018-12-07T00:44:22.514Z,20.87
2018-12-07T00:46:51.415Z,9.37
2018-12-07T00:49:20.199Z,25.63
2018-12-07T00:51:49.037Z,38.07
2018-12-07T00:54:17.820Z,17.60
2018-12-07T00:56:47.606Z,20.43
2018-12-07T00:59:30.698Z,15.17
2018-12-07T01:02:14.344Z,11.63
2018-12-07T01:04:51.777Z,17.23
2018-12-07T01:07:28.175Z,12.60
2018-12-07T01:10:08.541Z,15.10
2018-12-07T01:12:49.887Z,14.30
2018-12-07T01:15:22.011Z,11.17
2018-12-07T01:20:41.713Z,28.50
2018-12-07T01:26:06.448Z,6.63
2018-12-07T01:28:37.962Z,11.17
2018-12-07T01:31:12.804Z,6.00
2018-12-07T01:33:45.672Z,6.20
2018-12-07T01:36:39.244Z,5.73
2018-12-07T01:39:09.196Z,7.93
2018-12-07T01:42:02.429Z,8.70
2018-12-07T01:44:34.835Z,8.27
2018-12-07T01:52:47.226Z,8.43
2018-12-07T01:55:23.058Z,7.50
2018-12-07T01:58:13.830Z,9.93
2018-12-07T02:00:58.474Z,13.27
2018-12-07T02:06:23.728Z,6.87
2018-12-07T02:08:59.427Z,6.63
2018-12-07T02:11:42.232Z,15.33
2018-12-07T02:14:11.670Z,11.30
2018-12-07T02:16:44.681Z,6.17
2018-12-07T02:22:16.996Z,15.37
2018-12-07T02:24:46.601Z,9.70
2018-12-07T02:27:19.829Z,8.77
2018-12-07T02:32:50.384Z,9.97
2018-12-07T02:35:24.201Z,12.90
2018-12-07T02:40:36.880Z,19.13
2018-12-07T02:43:17.461Z,12.50
2018-12-07T02:45:49.105Z,13.07
2018-12-07T02:48:24.589Z,15.73
2018-12-07T02:51:06.211Z,19.77
2018-12-07T02:53:45.110Z,32.30
2018-12-07T02:56:31.976Z,22.20
2018-12-07T02:59:07.933Z,33.67
2018-12-07T03:01:50.804Z,24.90
2018-12-07T03:04:21.648Z,29.07
2018-12-07T03:06:50.599Z,34.07
2018-12-07T03:09:19.473Z,25.03
2018-12-07T03:11:48.360Z,20.30
2018-12-07T03:14:17.240Z,23.53
2018-12-07T03:16:46.028Z,29.87
2018-12-07T03:19:15.006Z,28.50
2018-12-07T03:21:43.936Z,24.90
2018-12-07T03:24:12.770Z,27.93
2018-12-07T03:26:41.572Z,22.27
2018-12-07T03:29:10.427Z,21.23
2018-12-07T03:31:39.215Z,15.70
2018-12-07T03:34:08.164Z,34.43
2018-12-07T03:36:36.967Z,31.67
2018-12-07T03:39:06.722Z,24.07
2018-12-07T03:41:36.840Z,23.53
2018-12-07T03:44:05.707Z,24.53
2018-12-07T03:46:34.611Z,26.53
2018-12-07T03:49:03.421Z,21.20
2018-12-07T03:51:32.201Z,23.40
2018-12-07T03:54:01.120Z,22.20
2018-12-07T03:56:29.919Z,23.60
2018-12-07T03:58:58.693Z,21.97
2018-12-07T04:01:27.523Z,30.57
2018-12-07T04:03:56.425Z,24.60
2018-12-07T04:06:26.231Z,24.90
2018-12-07T04:08:55.104Z,21.47
2018-12-07T04:11:24.002Z,20.87
2018-12-07T04:13:52.976Z,19.27
2018-12-07T04:16:21.787Z,15.90
2018-12-07T04:18:50.583Z,25.03
2018-12-07T04:21:19.476Z,24.17
2018-12-07T04:23:48.256Z,34.10
2018-12-07T04:26:17.042Z,28.43
2018-12-07T04:28:45.960Z,21.80
2018-12-07T04:31:14.784Z,29.37
2018-12-07T04:33:43.594Z,22.00
2018-12-07T04:36:12.471Z,19.00
2018-12-07T04:38:41.261Z,25.93
2018-12-07T04:41:10.152Z,24.90
2018-12-07T04:43:39.014Z,25.90
2018-12-07T04:46:09.838Z,26.50
2018-12-07T04:48:38.764Z,34.27
2018-12-07T04:51:07.614Z,21.67
2018-12-07T04:53:36.585Z,17.27
2018-12-07T04:56:05.419Z,20.73
2018-12-07T04:58:34.302Z,18.73
2018-12-07T05:01:03.244Z,18.33
2018-12-07T05:03:32.200Z,19.33
2018-12-07T05:06:06.847Z,24.27
2018-12-07T05:08:35.687Z,13.77
2018-12-07T05:11:04.720Z,10.67
2018-12-07T05:13:33.525Z,15.57
2018-12-07T05:16:02.533Z,11.60
2018-12-07T05:18:33.763Z,10.77
2018-12-07T05:23:47.078Z,9.57
2018-12-07T05:26:16.704Z,14.83
2018-12-07T05:28:52.137Z,9.10
2018-12-07T05:31:22.998Z,6.70
2018-12-07T05:33:58.018Z,8.00
2018-12-07T05:39:16.445Z,11.57
2018-12-07T05:41:54.121Z,4.67
2018-12-07T05:44:33.593Z,4.53
2018-12-07T05:47:25.165Z,4.37
2018-12-07T05:49:59.795Z,6.60
2018-12-07T05:52:34.614Z,14.03
2018-12-07T05:57:47.086Z,8.53
2018-12-07T06:00:27.244Z,3.27
2018-12-07T06:03:04.918Z,5.23
2018-12-07T06:05:41.674Z,3.53
2018-12-07T06:08:14.395Z,3.50
2018-12-07T06:10:47.821Z,2.47
2018-12-07T06:13:31.390Z,3.50
2018-12-07T06:18:46.060Z,3.97
2018-12-07T06:21:27.209Z,3.93
2018-12-07T06:24:01.178Z,2.37
2018-12-07T06:26:36.537Z,2.23
2018-12-07T06:29:09.989Z,2.47
2018-12-07T06:34:30.982Z,3.10
2018-12-07T06:37:00.157Z,2.63
2018-12-07T06:39:37.215Z,2.30
2018-12-07T06:42:07.397Z,3.57
2018-12-07T06:44:42.719Z,1.27
2018-12-07T06:47:11.514Z,3.27
2018-12-07T06:49:40.299Z,2.23
2018-12-07T06:52:09.083Z,2.53
2018-12-07T06:54:37.953Z,1.43
2018-12-07T06:57:06.896Z,2.23
2018-12-07T06:59:35.825Z,6.43
2018-12-07T07:02:05.887Z,6.67
2018-12-07T07:04:34.857Z,2.90
2018-12-07T07:07:05.234Z,1.70
2018-12-07T07:09:34.319Z,8.90
2018-12-07T07:12:03.307Z,7.77
2018-12-07T07:14:32.207Z,3.60
2018-12-07T07:17:01.026Z,3.87
2018-12-07T07:19:29.869Z,2.70
2018-12-07T07:21:59.169Z,2.77
2018-12-07T07:24:28.052Z,3.03
2018-12-07T07:26:56.863Z,2.90
2018-12-07T07:29:25.668Z,5.13
2018-12-07T07:31:54.591Z,4.63
2018-12-07T07:34:23.509Z,4.50
2018-12-07T07:36:52.299Z,5.10
2018-12-07T07:39:21.094Z,2.23
2018-12-07T07:41:49.886Z,5.40
2018-12-07T07:44:18.844Z,7.33
2018-12-07T07:46:48.022Z,9.33
2018-12-07T07:49:16.896Z,9.13
2018-12-07T07:51:47.146Z,8.47
2018-12-07T07:54:22.996Z,10.33
2018-12-07T07:59:38.436Z,7.93
2018-12-07T08:02:11.988Z,7.00
2018-12-07T08:04:46.459Z,9.37
2018-12-07T08:10:12.039Z,16.97
2018-12-07T08:12:44.882Z,10.03
2018-12-07T08:15:26.959Z,12.93
2018-12-07T08:18:00.898Z,11.13
2018-12-07T08:20:46.375Z,9.20
2018-12-07T08:23:19.971Z,4.77
2018-12-07T08:25:48.827Z,7.67
2018-12-07T08:28:17.644Z,9.23
2018-12-07T08:30:46.525Z,6.07
2018-12-07T08:33:15.302Z,5.73
2018-12-07T08:35:44.178Z,6.37
2018-12-07T08:38:13.070Z,5.70
2018-12-07T08:40:42.088Z,5.77
2018-12-07T08:43:10.958Z,4.10
2018-12-07T08:45:39.763Z,7.63
2018-12-07T08:48:08.686Z,2.90
2018-12-07T08:50:37.587Z,2.70
2018-12-07T08:53:06.483Z,4.80
2018-12-07T08:55:35.330Z,4.17
2018-12-07T08:58:04.776Z,4.87
2018-12-07T09:00:33.601Z,2.67
2018-12-07T09:03:02.591Z,8.23
2018-12-07T09:05:31.410Z,3.37
2018-12-07T09:08:00.231Z,3.67
2018-12-07T09:10:29.020Z,8.10
2018-12-07T09:12:57.826Z,3.07
2018-12-07T09:15:27.747Z,3.90
2018-12-07T09:17:56.571Z,4.50
2018-12-07T09:20:26.570Z,5.27
2018-12-07T09:22:55.602Z,7.47
2018-12-07T09:25:24.454Z,5.87
2018-12-07T09:27:53.635Z,7.43
2018-12-07T09:30:23.323Z,4.87
2018-12-07T09:32:52.155Z,7.10
2018-12-07T09:35:21.074Z,7.73
2018-12-07T09:37:49.883Z,9.47
2018-12-07T09:40:38.306Z,7.10
2018-12-07T09:43:22.375Z,9.93
2018-12-07T09:49:02.839Z,6.03
2018-12-07T09:51:31.782Z,7.53
2018-12-07T09:54:00.619Z,6.73
2018-12-07T09:56:30.475Z,7.00
2018-12-07T09:59:10.384Z,9.17
2018-12-07T10:01:39.243Z,6.10
2018-12-07T10:04:09.375Z,4.70
2018-12-07T10:06:38.220Z,5.20
2018-12-07T10:09:08.095Z,8.00
2018-12-07T10:11:42.150Z,9.50
2018-12-07T10:14:10.996Z,6.37
2018-12-07T10:16:42.956Z,8.07
2018-12-07T10:19:11.847Z,6.83
2018-12-07T10:21:46.567Z,7.93
2018-12-07T10:24:22.597Z,13.93
2018-12-07T10:30:15.374Z,11.23
2018-12-07T10:32:45.154Z,6.47
2018-12-07T10:35:14.375Z,10.90
2018-12-07T10:37:43.159Z,7.03
2018-12-07T10:40:12.027Z,9.03
2018-12-07T10:42:40.915Z,8.43
2018-12-07T10:45:09.739Z,15.70
2018-12-07T10:47:38.602Z,6.90
2018-12-07T10:50:07.626Z,13.97
2018-12-07T10:52:36.434Z,7.70
2018-12-07T10:55:05.593Z,8.40
2018-12-07T10:57:45.720Z,10.07
2018-12-07T11:00:23.077Z,9.93
2018-12-07T11:03:05.634Z,9.73
2018-12-07T11:06:04.009Z,8.53
2018-12-07T11:11:34.502Z,9.53
2018-12-07T11:14:13.294Z,10.13
2018-12-07T11:16:55.969Z,10.07
2018-12-07T11:19:30.615Z,7.37
2018-12-07T11:24:34.231Z,11.43
2018-12-07T11:27:14.341Z,10.93
2018-12-07T11:29:57.085Z,8.97
2018-12-07T11:32:51.465Z,9.57
2018-12-07T11:35:28.699Z,12.60
2018-12-07T11:38:03.025Z,14.87
2018-12-07T11:43:26.517Z,16.33
2018-12-07T11:46:10.308Z,14.07
2018-12-07T11:48:53.897Z,10.97
2018-12-07T11:51:50.821Z,8.67
2018-12-07T11:54:19.614Z,14.00
2018-12-07T11:56:48.409Z,13.70
2018-12-07T11:59:23.709Z,11.40
2018-12-07T12:04:47.894Z,9.90
2018-12-07T12:07:21.591Z,10.90
2018-12-07T12:12:33.162Z,8.60
2018-12-07T12:15:02.119Z,12.30
2018-12-07T12:17:30.895Z,10.97
2018-12-07T12:19:59.711Z,8.10
2018-12-07T12:22:36.007Z,8.97
2018-12-07T12:27:52.782Z,15.90
2018-12-07T12:30:32.647Z,12.63
2018-12-07T12:33:12.557Z,10.80
2018-12-07T12:35:44.940Z,9.80
2018-12-07T12:38:26.847Z,10.10
2018-12-07T12:40:57.207Z,9.30
2018-12-07T12:43:48.843Z,11.43
2018-12-07T12:46:22.093Z,11.27
2018-12-07T12:48:50.980Z,10.20
2018-12-07T12:51:19.833Z,11.57
2018-12-07T12:53:48.682Z,12.27
2018-12-07T12:56:17.551Z,10.03
2018-12-07T12:58:46.376Z,10.50
2018-12-07T13:01:15.205Z,12.80
2018-12-07T13:03:44.013Z,17.27
2018-12-07T13:06:12.859Z,16.17
2018-12-07T13:08:41.728Z,12.33
2018-12-07T13:11:10.634Z,13.77
2018-12-07T13:13:39.452Z,13.07
2018-12-07T13:16:08.287Z,12.07
2018-12-07T13:18:37.103Z,10.83
2018-12-07T13:21:05.990Z,15.73
2018-12-07T13:23:34.793Z,12.40
2018-12-07T13:26:03.752Z,10.93
2018-12-07T13:28:32.550Z,14.43
2018-12-07T13:31:01.366Z,9.70
2018-12-07T13:33:30.239Z,11.13
2018-12-07T13:35:59.159Z,10.93
2018-12-07T13:38:28.123Z,12.27
2018-12-07T13:40:57.019Z,10.53
2018-12-07T13:43:25.853Z,15.03
2018-12-07T13:45:55.725Z,10.43
2018-12-07T13:48:24.860Z,9.23
2018-12-07T13:51:02.783Z,12.33
2018-12-07T13:56:16.594Z,9.10
2018-12-07T13:58:57.438Z,7.50
2018-12-07T14:01:37.551Z,7.17
2018-12-07T14:14:26.931Z,7.77
2018-12-07T14:16:55.973Z,9.03
2018-12-07T14:19:43.513Z,8.27
2018-12-07T14:22:26.510Z,8.13
2018-12-07T14:28:10.690Z,10.23
2018-12-07T14:30:39.665Z,6.33
2018-12-07T14:33:08.873Z,10.80
2018-12-07T14:35:37.795Z,4.40
2018-12-07T14:38:07.771Z,4.70
2018-12-07T14:48:38.982Z,5.90
2018-12-07T14:51:08.245Z,5.23
2018-12-07T14:53:41.803Z,6.13
2018-12-07T14:56:22.508Z,8.43
2018-12-07T14:58:53.805Z,9.23
2018-12-07T15:01:36.745Z,6.20
2018-12-07T15:04:11.975Z,8.00
2018-12-07T15:06:54.694Z,7.07
2018-12-07T15:09:30.001Z,7.17
2018-12-07T15:12:08.435Z,4.60
2018-12-07T15:14:49.146Z,4.03
2018-12-07T15:17:20.181Z,9.07
2018-12-07T15:19:59.670Z,12.67
2018-12-07T15:22:36.955Z,19.63
2018-12-07T15:25:07.031Z,13.53
2018-12-07T15:30:45.304Z,12.80
2018-12-07T15:33:21.167Z,8.20
2018-12-07T15:36:26.222Z,18.50
2018-12-07T15:39:17.458Z,29.80
2018-12-07T15:41:47.542Z,30.27
2018-12-07T15:44:16.371Z,14.97
2018-12-07T15:46:45.467Z,10.53
2018-12-07T15:49:14.620Z,21.33
2018-12-07T15:51:44.310Z,29.00
2018-12-07T15:54:15.401Z,13.93
2018-12-07T15:56:58.326Z,21.67
2018-12-07T15:59:48.295Z,18.77
2018-12-07T16:05:05.694Z,29.87
2018-12-07T16:07:43.853Z,7.20
2018-12-07T16:15:47.701Z,12.07
2018-12-07T16:21:28.481Z,4.97
2018-12-07T16:29:35.231Z,9.40
2018-12-07T16:34:53.199Z,11.47
2018-12-07T16:37:24.879Z,10.53
2018-12-07T16:42:42.825Z,3.67
2018-12-07T16:45:20.845Z,7.03
2018-12-07T16:47:56.874Z,9.20
2018-12-07T16:51:09.172Z,4.40
2018-12-07T16:53:48.196Z,3.80
2018-12-07T16:56:24.159Z,18.83
2018-12-07T16:59:06.142Z,4.60
2018-12-07T17:04:25.954Z,14.20
2018-12-07T17:07:07.145Z,8.60
2018-12-07T17:12:44.850Z,6.37
2018-12-07T17:15:23.907Z,6.80
2018-12-07T17:18:02.073Z,7.07
2018-12-07T17:20:48.973Z,6.80
2018-12-07T17:23:30.277Z,11.83
2018-12-07T17:26:29.149Z,8.73
2018-12-07T17:29:15.365Z,7.37
2018-12-07T17:32:00.156Z,5.63
2018-12-07T17:37:37.835Z,8.53
2018-12-07T17:40:16.682Z,21.33
2018-12-07T17:43:01.732Z,12.43
2018-12-07T17:45:34.986Z,16.57
2018-12-07T17:48:20.426Z,24.87
2018-12-07T17:50:52.366Z,13.33
2018-12-07T17:53:29.680Z,14.53
2018-12-07T17:55:59.941Z,12.50
2018-12-07T17:58:38.597Z,17.00
2018-12-07T18:01:18.017Z,8.90
2018-12-07T18:04:04.962Z,22.60
2018-12-07T18:06:50.939Z,15.17
2018-12-07T18:09:29.911Z,16.87
2018-12-07T18:12:09.795Z,22.67
2018-12-07T18:14:52.224Z,20.63
2018-12-07T18:20:28.853Z,14.27
2018-12-07T18:25:56.933Z,19.03
2018-12-07T18:28:33.912Z,14.20
2018-12-07T18:37:00.059Z,26.70
2018-12-07T18:39:37.960Z,18.53
2018-12-07T18:42:14.185Z,21.73
2018-12-07T18:44:50.510Z,20.53
2018-12-07T18:47:39.892Z,29.43
2018-12-07T18:50:14.543Z,17.33
2018-12-07T18:52:49.079Z,30.23
2018-12-07T18:55:26.915Z,52.80
2018-12-07T18:58:05.147Z,17.80
2018-12-07T19:00:48.288Z,11.10
2018-12-07T19:03:27.974Z,14.97
2018-12-07T19:05:57.695Z,25.00
2018-12-07T19:11:21.844Z,18.10
2018-12-07T19:13:55.369Z,20.03
2018-12-07T19:16:41.813Z,15.33
2018-12-07T19:19:23.387Z,7.07
2018-12-07T19:24:34.226Z,17.77
2018-12-07T19:29:57.303Z,28.53
2018-12-07T19:32:28.206Z,8.10
2018-12-07T19:35:02.063Z,16.47
2018-12-07T19:37:39.147Z,20.50
2018-12-07T19:40:17.961Z,11.93
2018-12-07T19:42:50.871Z,11.47
2018-12-07T19:45:23.252Z,17.60
2018-12-07T19:47:58.380Z,10.37
2018-12-07T19:50:30.265Z,18.87
2018-12-07T19:53:21.592Z,9.77
2018-12-07T19:56:01.183Z,14.00
2018-12-07T19:58:39.756Z,15.87
2018-12-07T20:01:30.986Z,11.90
2018-12-07T20:04:04.184Z,11.00
2018-12-07T20:06:40.202Z,8.40
2018-12-07T20:09:33.078Z,16.00
2018-12-07T20:12:11.599Z,12.07
2018-12-07T20:14:42.141Z,12.73
2018-12-07T20:17:17.729Z,12.23
2018-12-07T20:19:56.142Z,22.43
2018-12-07T20:22:33.795Z,10.83
2018-12-07T20:25:07.519Z,15.00
2018-12-07T20:27:49.524Z,12.53
2018-12-07T20:30:19.523Z,21.17
2018-12-07T20:33:02.225Z,19.63
2018-12-07T20:35:38.988Z,6.00
2018-12-07T20:38:33.090Z,11.37
2018-12-07T20:41:24.143Z,15.20
2018-12-07T20:43:58.688Z,10.37
2018-12-07T20:49:25.256Z,9.43
2018-12-07T20:51:57.004Z,21.33
2018-12-07T20:54:45.031Z,8.97
2018-12-07T21:02:39.576Z,14.33
2018-12-07T21:13:43.023Z,15.50
2018-12-07T21:16:39.990Z,15.47
2018-12-07T21:19:37.284Z,10.80
2018-12-07T21:22:19.395Z,15.33
2018-12-07T21:25:16.810Z,9.10
2018-12-07T21:30:48.113Z,16.50
2018-12-07T21:34:00.076Z,17.67
2018-12-07T21:40:50.501Z,5.03
2018-12-07T21:43:24.900Z,6.47
2018-12-07T21:45:53.991Z,10.37
2018-12-07T21:48:28.816Z,9.27
2018-12-07T21:55:24.468Z,19.33
2018-12-07T21:58:04.685Z,15.40
2018-12-07T22:00:37.860Z,12.83
2018-12-07T22:03:12.439Z,5.37
2018-12-07T22:05:52.819Z,17.77
2018-12-07T22:11:20.645Z,12.93
2018-12-07T22:13:51.917Z,6.87
2018-12-07T22:16:26.595Z,5.43
2018-12-07T22:18:55.541Z,10.10
2018-12-07T22:21:24.440Z,3.57
2018-12-07T22:23:55.420Z,11.50
2018-12-07T22:26:28.761Z,10.73
2018-12-07T22:29:14.420Z,8.73
2018-12-07T22:36:36.281Z,15.87
2018-12-07T22:41:56.536Z,15.53
2018-12-07T22:44:38.390Z,14.83
2018-12-07T22:47:17.153Z,11.73
2018-12-07T22:49:58.173Z,5.53
2018-12-07T22:52:33.910Z,15.13
2018-12-07T22:55:11.807Z,10.63
2018-12-07T22:58:12.719Z,17.53
2018-12-07T23:01:06.038Z,11.50
2018-12-07T23:03:59.749Z,15.03
2018-12-07T23:09:53.055Z,13.03
2018-12-07T23:12:35.303Z,8.53
2018-12-07T23:15:24.743Z,8.40
2018-12-07T23:18:10.647Z,4.67
2018-12-07T23:20:47.958Z,3.80
2018-12-07T23:23:50.026Z,12.70
2018-12-07T23:26:35.050Z,11.77
2018-12-07T23:29:41.573Z,15.50
2018-12-07T23:35:22.755Z,10.27
2018-12-07T23:37:58.937Z,12.07
2018-12-07T23:46:27.271Z,23.80
2018-12-07T23:49:36.737Z,14.47
2018-12-07T23:52:14.219Z,9.20
2018-12-07T23:54:44.998Z,13.13
2018-12-07T23:57:22.633Z,11.00
